Weather History for Savanna, IL

Change the Weather History Date:

Friday, November 30, 2012

  Actual Average (KCWI) Record (KCWI)
Temperature  
Mean Temperature 42 °F -  
Max Temperature 53 °F 41 °F 64 °F (1962)
Min Temperature 32 °F 24 °F -3 °F (1976)
Degree Days  
Heating Degree Days 22    
Moisture  
Dew Point 34 °F    
Average Humidity 77    
Maximum Humidity 96    
Minimum Humidity 52    
Precipitation  
Precipitation 0.00 in - - ()
Sea Level Pressure  
Sea Level Pressure 30.07 in    
Wind  
Wind Speed 5 mph (NE)    
Max Wind Speed 12 mph    
Max Gust Speed -    
Visibility 8 miles    
Events      
Averages and records for this station are not official NWS values.
T = Trace of Precipitation, MM = Missing Value Source: NWS Daily Summary

Daily Weather History Graph

Daily Weather History Graph

Search for Another Location

Airport:

Trip Planner

Search our weather history database for the weather conditions in past years. The results will help you decide how hot, cold, wet, or windy it might be!

Date:

Astronomy

Nov. 30, 2012 Rise Set
Actual Time 7:08 AM CST 4:29 PM CST
Civil Twilight 6:37 AM CST 5:01 PM CST
Nautical Twilight 6:02 AM CST 5:35 PM CST
Astronomical Twilight 5:28 AM CST 6:09 PM CST
Moon 6:25 PM CST (11/30) 8:40 AM CST (11/30)
Length of Visible Light 10h 23m
Length of Day
9h 21m
Waning Gibbous, 96% of the Moon is Illuminated
Nov 30
Waning Gibbous
Dec 6
Last Quarter
Dec 13
New
Dec 19
First Quarter
Dec 28
Full

Hourly Weather History & Observations

Time (CST) Temp. Windchill Dew Point Humidity Pressure Visibility Wind Dir Wind Speed Gust Speed Precip Events Conditions
12:15 AM 41.9 °F 40.0 °F 34.7 °F 76% 30.04 in 10.0 mi SE 3.5 mph - N/A   Mostly Cloudy
12:35 AM 41.9 °F 40.0 °F 34.9 °F 76% 30.04 in 10.0 mi SE 3.5 mph - N/A   Overcast
12:55 AM 42.3 °F 40.5 °F 34.9 °F 75% 30.03 in 10.0 mi SE 3.5 mph - N/A   Overcast
1:15 AM 41.5 °F 37.8 °F 34.7 °F 77% 30.02 in 10.0 mi SE 5.8 mph - N/A   Scattered Clouds
1:35 AM 40.1 °F - 33.8 °F 78% 30.04 in 10.0 mi Calm Calm - N/A   Scattered Clouds
1:55 AM 40.6 °F - 34.2 °F 78% 30.03 in 10.0 mi Calm Calm - N/A   Mostly Cloudy
2:15 AM 38.5 °F - 33.3 °F 81% 30.04 in 10.0 mi Calm Calm - N/A   Mostly Cloudy
2:35 AM 38.3 °F - 33.3 °F 82% 30.04 in 10.0 mi Calm Calm - N/A   Scattered Clouds
2:55 AM 37.4 °F 33.8 °F 32.7 °F 83% 30.03 in 10.0 mi ENE 4.6 mph - N/A   Clear
3:15 AM 34.2 °F 29.0 °F 31.6 °F 90% 30.02 in 10.0 mi ENE 5.8 mph - N/A   Clear
3:35 AM 34.3 °F 30.2 °F 31.8 °F 90% 30.02 in 10.0 mi NE 4.6 mph - N/A   Clear
3:55 AM 34.5 °F 29.4 °F 32.2 °F 91% 30.02 in 10.0 mi NE 5.8 mph - N/A   Clear
4:15 AM 33.8 °F 28.6 °F 32.0 °F 93% 30.02 in 7.0 mi NE 5.8 mph - N/A   Clear
4:35 AM 34.2 °F 30.0 °F 32.0 °F 92% 30.02 in 10.0 mi ENE 4.6 mph - N/A   Clear
4:55 AM 34.7 °F 29.6 °F 31.8 °F 89% 30.02 in 10.0 mi East 5.8 mph - N/A   Clear
5:15 AM 34.2 °F 28.2 °F 31.8 °F 91% 30.02 in 10.0 mi ENE 6.9 mph - N/A   Clear
5:35 AM 35.1 °F 31.0 °F 32.2 °F 89% 30.03 in 10.0 mi NE 4.6 mph - N/A   Clear
5:55 AM 35.6 °F 29.9 °F 32.5 °F 89% 30.02 in 10.0 mi NE 6.9 mph - N/A   Clear
6:15 AM 36.3 °F 33.7 °F 32.4 °F 86% 30.04 in 10.0 mi North 3.5 mph - N/A   Clear
6:35 AM 35.6 °F 32.8 °F 32.0 °F 87% 30.04 in 10.0 mi NNE 3.5 mph - N/A   Clear
6:55 AM 35.1 °F 32.2 °F 32.0 °F 89% 30.05 in 10.0 mi NNE 3.5 mph - N/A   Clear
7:15 AM 34.7 °F - 32.0 °F 90% 30.06 in 7.0 mi Calm Calm - N/A   Clear
7:35 AM 34.3 °F - 32.2 °F 92% 30.06 in 7.0 mi Calm Calm - N/A   Clear
7:55 AM 34.9 °F 32.0 °F 32.5 °F 91% 30.07 in 7.0 mi ENE 3.5 mph - N/A   Scattered Clouds
8:15 AM 35.8 °F - 32.9 °F 89% 30.06 in 7.0 mi Calm Calm - N/A   Scattered Clouds
8:35 AM 36.9 °F - 34.0 °F 89% 30.07 in 7.0 mi Calm Calm - N/A   Clear
8:55 AM 40.8 °F 37.8 °F 35.4 °F 81% 30.07 in 7.0 mi ENE 4.6 mph - N/A   Clear
9:15 AM 41.9 °F 36.3 °F 34.5 °F 75% 30.07 in 10.0 mi ENE 9.2 mph - N/A   Mostly Cloudy
9:35 AM 42.8 °F 38.6 °F 34.7 °F 73% 30.07 in 10.0 mi NE 6.9 mph - N/A   Scattered Clouds
9:55 AM 44.8 °F 39.4 °F 34.3 °F 67% 30.07 in 10.0 mi NE 10.4 mph - N/A   Clear
10:15 AM 46.0 °F 41.4 °F 34.5 °F 64% 30.08 in 10.0 mi NE 9.2 mph - N/A   Clear
10:35 AM 47.1 °F - 34.7 °F 62% 30.08 in 10.0 mi NNE 9.2 mph - N/A   Clear
10:55 AM 48.6 °F - 34.9 °F 59% 30.08 in 10.0 mi NE 9.2 mph - N/A   Clear
11:15 AM 49.8 °F - 35.2 °F 57% 30.07 in 10.0 mi NE 11.5 mph - N/A   Clear
11:35 AM 50.7 °F - 35.8 °F 57% 30.07 in 10.0 mi ENE 10.4 mph - N/A   Clear
11:55 AM 51.1 °F - 36.5 °F 57% 30.07 in 7.0 mi NNE 10.4 mph - N/A   Clear
12:15 PM 51.3 °F - 36.5 °F 57% 30.07 in 7.0 mi NE 9.2 mph - N/A   Clear
12:35 PM 52.0 °F - 36.9 °F 56% 30.06 in 7.0 mi NE 9.2 mph - N/A   Clear
12:55 PM 52.2 °F - 37.0 °F 56% 30.05 in 7.0 mi NE 10.4 mph - N/A   Clear
1:15 PM 52.7 °F - 37.2 °F 56% 30.05 in 7.0 mi NE 6.9 mph - N/A   Clear
1:35 PM 53.1 °F - 37.0 °F 55% 30.05 in 7.0 mi NE 8.1 mph - N/A   Clear
1:55 PM 53.6 °F - 36.5 °F 52% 30.05 in 7.0 mi NE 8.1 mph - N/A   Clear
2:15 PM 53.1 °F - 36.7 °F 54% 30.05 in 10.0 mi ENE 9.2 mph - N/A   Clear
2:35 PM 53.1 °F - 36.9 °F 54% 30.06 in 10.0 mi ENE 6.9 mph - N/A   Clear
2:55 PM 52.7 °F - 37.4 °F 56% 30.07 in 7.0 mi NE 5.8 mph - N/A   Clear
3:15 PM 52.2 °F - 36.9 °F 56% 30.07 in 7.0 mi NE 5.8 mph - N/A   Clear
3:35 PM 51.4 °F - 37.0 °F 58% 30.09 in 7.0 mi NNE 6.9 mph - N/A   Clear
3:55 PM 49.8 °F - 36.7 °F 61% 30.09 in 7.0 mi NNE 5.8 mph - N/A   Clear
4:15 PM 48.4 °F - 36.7 °F 64% 30.09 in 7.0 mi NNE 6.9 mph - N/A   Clear
4:35 PM 47.1 °F - 36.1 °F 66% 30.10 in 7.0 mi NNE 4.6 mph - N/A   Clear
4:55 PM 45.7 °F 44.4 °F 36.0 °F 69% 30.10 in 10.0 mi NE 3.5 mph - N/A   Clear
5:15 PM 43.5 °F - 35.1 °F 72% 30.11 in 10.0 mi Calm Calm - N/A   Clear
5:35 PM 45.3 °F 43.0 °F 36.0 °F 70% 30.11 in 7.0 mi NE 4.6 mph - N/A   Clear
5:55 PM 42.8 °F 38.6 °F 35.6 °F 76% 30.12 in 10.0 mi NE 6.9 mph - N/A   Clear
6:15 PM 43.3 °F 38.6 °F 36.3 °F 76% 30.13 in 10.0 mi ENE 8.1 mph - N/A   Clear
6:35 PM 42.6 °F 37.2 °F 36.1 °F 78% 30.12 in 7.0 mi ENE 9.2 mph - N/A   Clear
6:55 PM 41.7 °F 35.6 °F 36.0 °F 80% 30.12 in 7.0 mi ENE 10.4 mph - N/A   Clear
7:15 PM 40.3 °F 34.4 °F 35.6 °F 83% 30.13 in 7.0 mi NE 9.2 mph - N/A   Clear
7:35 PM 39.6 °F 32.5 °F 35.2 °F 85% 30.12 in 7.0 mi ENE 11.5 mph - N/A   Clear
7:55 PM 39.0 °F 32.3 °F 35.1 °F 86% 30.12 in 7.0 mi ENE 10.4 mph - N/A   Clear
8:15 PM 37.8 °F 31.8 °F 34.3 °F 87% 30.12 in 5.0 mi ENE 8.1 mph - N/A   Clear
8:35 PM 37.0 °F 31.6 °F 33.8 °F 88% 30.12 in 5.0 mi NE 6.9 mph - N/A   Clear
8:55 PM 37.4 °F 30.3 °F 34.5 °F 89% 30.13 in 5.0 mi ENE 10.4 mph - N/A   Clear
9:15 PM 36.3 °F 30.1 °F 33.8 °F 91% 30.12 in 5.0 mi ENE 8.1 mph - N/A   Clear
9:35 PM 35.6 °F 29.2 °F 33.1 °F 91% 30.11 in 5.0 mi ENE 8.1 mph - N/A   Clear
9:55 PM 34.9 °F 30.8 °F 32.9 °F 92% 30.14 in 4.0 mi NNE 4.6 mph - N/A   Clear
10:15 PM 34.2 °F 28.2 °F 32.2 °F 92% 30.13 in 4.0 mi ENE 6.9 mph - N/A   Clear
10:35 PM 35.1 °F - 33.1 °F 92% 30.14 in 4.0 mi Calm Calm - N/A   Clear
10:55 PM 32.9 °F 25.9 °F 31.8 °F 96% 30.11 in 3.0 mi ENE 8.1 mph - N/A   Clear
11:15 PM 33.6 °F 28.4 °F 32.2 °F 94% 30.12 in 4.0 mi NE 5.8 mph - N/A   Clear
11:35 PM 33.8 °F 30.8 °F 32.4 °F 94% 30.12 in 3.0 mi NE 3.5 mph - N/A   Clear
11:55 PM 34.7 °F 31.8 °F 32.9 °F 93% 30.12 in 4.0 mi ENE 3.5 mph - N/A   Clear